Time;durP1;ratioP1;P1;durP2;ratioP2;P2;SDS_P1;SDS_P2;PMS_P1;PMS_P2;Temp;Humidity;BMP_temperature;BMP_pressure;BME280_temperature;BME280_humidity;BME280_pressure;Samples;Min_cycle;Max_cycle;Signal;HPM_P1;HPM_P2
2022/03/06 00:09:18;;;;;;;46.20;24.60;;;;;;;-0.89;71.33;99223.67;432356;1271;99351;-43
2022/03/06 00:19:26;;;;;;;66.20;29.60;;;;;;;-0.83;71.29;99225.55;432539;1271;112497;-41
2022/03/06 00:29:33;;;;;;;65.90;31.50;;;;;;;-0.86;71.63;99223.54;432647;1271;107302;-41
2022/03/06 00:39:40;;;;;;;65.40;28.50;;;;;;;-0.94;71.63;99218.61;432384;1271;99277;-41
2022/03/06 00:49:47;;;;;;;66.80;31.30;;;;;;;-1.05;71.59;99215.04;432578;1271;108857;-41
2022/03/06 00:59:55;;;;;;;68.50;29.40;;;;;;;-1.13;71.76;99207.06;432451;1271;99266;-44
2022/03/06 01:10:02;;;;;;;66.80;31.80;;;;;;;-1.22;72.00;99203.53;432553;1271;112476;-41
2022/03/06 01:20:11;;;;;;;67.90;28.40;;;;;;;-1.25;71.86;99203.95;432334;1271;108863;-42
2022/03/06 01:40:26;;;;;;;45.20;22.00;;;;;;;-1.13;72.17;99201.30;432546;1271;108902;-40
2022/03/06 01:50:35;;;;;;;52.60;27.80;;;;;;;-1.04;72.46;99192.84;432594;1271;99346;-41
2022/03/06 02:00:45;;;;;;;67.40;29.00;;;;;;;-1.03;72.20;99191.04;432556;1271;112906;-42
2022/03/06 02:10:54;;;;;;;68.10;30.30;;;;;;;-1.08;72.51;99190.69;432705;1271;108735;-43
2022/03/06 02:21:01;;;;;;;63.50;29.40;;;;;;;-1.14;72.57;99191.93;433247;1261;98276;-41
2022/03/06 02:31:10;;;;;;;65.50;28.30;;;;;;;-1.22;72.60;99195.73;432797;1270;112491;-41
2022/03/06 02:41:17;;;;;;;56.10;26.10;;;;;;;-1.28;72.77;99192.32;432784;1269;107088;-41
2022/03/06 02:51:24;;;;;;;44.20;23.70;;;;;;;-1.28;72.72;99190.19;432826;1270;98855;-41
2022/03/06 03:01:37;;;;;;;41.60;20.10;;;;;;;-1.15;72.75;99191.12;432554;1270;112451;-41
2022/03/06 03:11:46;;;;;;;53.60;25.40;;;;;;;-1.06;72.88;99188.41;432907;1270;108738;-42
2022/03/06 03:21:55;;;;;;;65.10;28.00;;;;;;;-1.05;72.86;99187.20;432701;1269;99363;-41
2022/03/06 03:32:02;;;;;;;63.80;29.00;;;;;;;-1.08;73.05;99189.94;432860;1269;112384;-42
2022/03/06 03:42:09;;;;;;;63.40;27.50;;;;;;;-1.17;73.09;99190.58;432773;1270;107826;-41
2022/03/06 03:52:16;;;;;;;76.70;31.20;;;;;;;-1.25;73.27;99186.43;432256;1270;98781;-41
2022/03/06 04:02:23;;;;;;;80.70;34.40;;;;;;;-1.29;73.46;99186.67;432757;1269;111403;-40
2022/03/06 04:12:31;;;;;;;64.20;31.00;;;;;;;-1.30;73.22;99187.44;432763;1270;108984;-43
2022/03/06 04:22:38;;;;;;;54.20;25.30;;;;;;;-1.23;73.34;99185.09;432801;1270;99246;-43
2022/03/06 04:32:45;;;;;;;70.60;32.20;;;;;;;-1.10;73.61;99192.00;432665;1269;108984;-41
2022/03/06 04:42:52;;;;;;;70.70;32.20;;;;;;;-1.07;73.86;99191.61;432597;1270;99187;-41
2022/03/06 05:03:06;;;;;;;68.00;31.10;;;;;;;-1.24;73.92;99183.81;432946;1270;108805;-41
2022/03/06 05:13:13;;;;;;;74.40;30.90;;;;;;;-1.33;73.98;99188.46;433107;1270;99357;-42
2022/03/06 05:23:20;;;;;;;70.10;30.50;;;;;;;-1.39;74.20;99191.56;432750;1270;112768;-42
2022/03/06 05:33:29;;;;;;;47.20;28.80;;;;;;;-1.39;74.15;99191.73;432421;1271;108783;-41
2022/03/06 05:53:42;;;;;;;71.60;33.30;;;;;;;-1.13;74.36;99201.65;432732;1270;107622;-40
2022/03/06 06:03:49;;;;;;;71.80;32.20;;;;;;;-1.08;74.58;99198.75;432965;1269;98876;-40
2022/03/06 06:13:57;;;;;;;82.10;35.60;;;;;;;-1.07;74.63;99201.83;432792;1270;112548;-41
2022/03/06 06:24:03;;;;;;;88.40;42.50;;;;;;;-1.18;74.42;99206.83;432903;1270;108731;-39
2022/03/06 06:34:10;;;;;;;89.90;40.50;;;;;;;-1.31;74.54;99199.98;432939;1269;99249;-43
2022/03/06 06:44:17;;;;;;;77.00;40.10;;;;;;;-1.30;74.54;99203.55;432923;1270;110726;-41
2022/03/06 06:54:25;;;;;;;66.20;33.70;;;;;;;-1.12;74.64;99209.14;432754;1270;108829;-43
2022/03/06 07:04:33;;;;;;;86.70;42.30;;;;;;;-0.97;74.80;99214.85;432955;1269;99390;-41
2022/03/06 07:14:40;;;;;;;82.80;38.70;;;;;;;-0.88;75.05;99209.17;433168;1270;108872;-41
2022/03/06 07:24:47;;;;;;;92.80;39.90;;;;;;;-0.83;74.68;99210.23;433010;1269;98941;-41
2022/03/06 07:34:55;;;;;;;92.20;40.20;;;;;;;-0.80;74.70;99209.34;433025;1270;111849;-43
2022/03/06 07:45:03;;;;;;;83.30;35.80;;;;;;;-0.80;74.68;99209.10;432965;1270;109034;-40
2022/03/06 07:55:12;;;;;;;68.00;31.40;;;;;;;-0.77;74.74;99210.61;433002;1270;98861;-40
2022/03/06 08:05:19;;;;;;;87.20;41.40;;;;;;;-0.69;74.80;99209.83;432928;1270;112417;-42
2022/03/06 08:25:34;;;;;;;66.00;32.00;;;;;;;-0.28;74.78;99197.75;432914;1270;99375;-42
2022/03/06 08:35:41;;;;;;;92.30;44.80;;;;;;;-0.07;74.77;99191.56;432747;1270;108846;-42
2022/03/06 08:45:48;;;;;;;85.10;41.40;;;;;;;0.05;74.45;99189.38;432659;1270;99257;-42
2022/03/06 08:55:56;;;;;;;83.20;40.30;;;;;;;0.15;74.52;99190.82;432989;1270;112448;-42
2022/03/06 09:06:03;;;;;;;85.50;40.80;;;;;;;0.23;74.24;99183.95;432761;1270;108750;-40
2022/03/06 09:16:10;;;;;;;84.30;39.00;;;;;;;0.26;74.30;99184.88;432952;1270;99366;-41
2022/03/06 09:26:18;;;;;;;49.20;25.20;;;;;;;0.40;74.48;99185.75;428858;1270;5477057;-42
2022/03/06 09:36:25;;;;;;;44.00;25.10;;;;;;;0.42;73.98;99184.85;432865;1270;107696;-43
2022/03/06 09:46:34;;;;;;;54.00;27.40;;;;;;;0.49;74.08;99176.92;433051;1270;97935;-41
2022/03/06 09:56:41;;;;;;;54.80;26.50;;;;;;;0.57;73.84;99178.86;432801;1270;108655;-41
2022/03/06 10:06:57;;;;;;;44.90;21.60;;;;;;;0.52;73.39;99179.38;432884;1270;99257;-42
2022/03/06 10:17:19;;;;;;;26.30;14.30;;;;;;;0.64;73.12;99182.73;432818;1270;113005;-41
2022/03/06 10:38:00;;;;;;;24.70;13.70;;;;;;;0.69;71.83;99177.89;432947;1270;98847;-40
2022/03/06 10:48:09;;;;;;;111.00;48.60;;;;;;;0.71;71.78;99174.75;432792;1270;109344;-40
2022/03/06 10:58:17;;;;;;;80.90;39.70;;;;;;;0.66;71.94;99165.31;433057;1270;99286;-41
2022/03/06 11:08:24;;;;;;;52.60;26.70;;;;;;;0.62;72.19;99155.86;432875;1270;111467;-41
2022/03/06 11:18:32;;;;;;;52.50;26.20;;;;;;;0.50;72.18;99151.14;433045;1270;106926;-43
2022/03/06 11:28:40;;;;;;;32.50;17.60;;;;;;;0.48;71.91;99141.98;432859;1270;99266;-40
2022/03/06 11:38:48;;;;;;;35.50;16.90;;;;;;;0.43;71.75;99135.52;432991;1270;111428;-42
2022/03/06 11:59:24;;;;;;;55.00;25.80;;;;;;;0.46;72.14;99123.42;433033;1270;98058;-40
2022/03/06 12:09:33;;;;;;;67.80;31.20;;;;;;;0.50;72.44;99107.13;432828;1270;112476;-41
2022/03/06 12:20:04;;;;;;;41.40;22.40;;;;;;;0.50;72.11;99097.14;432805;1270;108784;-40
2022/03/06 12:30:13;;;;;;;39.20;20.80;;;;;;;0.59;72.02;99089.52;432953;1270;98814;-42
2022/03/06 12:40:24;;;;;;;43.40;19.40;;;;;;;0.62;71.76;99085.36;432481;1270;112447;-41
2022/03/06 12:50:31;;;;;;;37.30;18.10;;;;;;;0.54;71.42;99080.81;432483;1270;108836;-44
2022/03/06 13:00:39;;;;;;;29.40;15.90;;;;;;;0.60;71.00;99070.33;432386;1271;99251;-40
2022/03/06 13:10:47;;;;;;;38.30;19.80;;;;;;;0.59;71.00;99064.38;432514;1271;108933;-41
2022/03/06 13:20:54;;;;;;;37.20;19.00;;;;;;;0.61;70.89;99059.63;432751;1270;99261;-42
2022/03/06 13:31:04;;;;;;;38.70;20.50;;;;;;;0.60;70.57;99055.79;432558;1270;112472;-42
2022/03/06 13:41:11;;;;;;;41.00;22.80;;;;;;;0.57;70.15;99053.66;432559;1270;106983;-41
2022/03/06 13:51:18;;;;;;;35.60;18.40;;;;;;;0.51;69.71;99052.15;432697;1270;99254;-42
2022/03/06 14:01:27;;;;;;;40.80;19.90;;;;;;;0.47;69.59;99054.69;432636;1270;113076;-40
2022/03/06 14:11:34;;;;;;;34.50;20.50;;;;;;;0.33;69.43;99051.36;432649;1270;108757;-41
2022/03/06 14:21:41;;;;;;;48.00;22.80;;;;;;;0.32;69.14;99050.96;432547;1270;99257;-41
2022/03/06 14:31:50;;;;;;;38.50;19.70;;;;;;;0.28;69.24;99045.98;432560;1269;110186;-41
2022/03/06 14:41:58;;;;;;;47.90;25.30;;;;;;;0.23;69.17;99047.01;432471;1269;108797;-40
2022/03/06 14:52:05;;;;;;;43.90;21.90;;;;;;;0.15;69.03;99043.84;432597;1270;98824;-41
2022/03/06 15:02:12;;;;;;;61.50;29.40;;;;;;;0.05;68.96;99040.72;432577;1270;112911;-44
2022/03/06 15:12:20;;;;;;;39.60;21.40;;;;;;;0.02;68.86;99045.38;432460;1270;108770;-41
2022/03/06 15:22:28;;;;;;;42.50;21.20;;;;;;;0.07;68.91;99043.60;432539;1270;99971;-40
2022/03/06 15:32:35;;;;;;;52.20;24.00;;;;;;;0.07;69.18;99042.61;432586;1270;108893;-42
2022/03/06 15:42:41;;;;;;;51.10;25.10;;;;;;;0.02;69.12;99041.32;432565;1269;99253;-43
2022/03/06 15:52:47;;;;;;;42.20;21.50;;;;;;;-0.05;69.29;99043.17;432590;1271;112289;-41
2022/03/06 16:02:54;;;;;;;54.50;25.60;;;;;;;-0.15;69.18;99047.85;432652;1270;108841;-41
2022/03/06 16:13:02;;;;;;;54.70;27.70;;;;;;;-0.23;69.25;99057.64;432540;1270;98064;-40
2022/03/06 16:23:09;;;;;;;45.50;24.50;;;;;;;-0.32;69.22;99054.54;432470;1270;112506;-40
2022/03/06 16:33:18;;;;;;;46.10;23.60;;;;;;;-0.48;69.09;99057.64;432711;1270;108801;-41
2022/03/06 16:43:28;;;;;;;55.80;27.40;;;;;;;-0.57;69.10;99055.84;432616;1270;99285;-41
2022/03/06 16:53:35;;;;;;;61.10;37.80;;;;;;;-0.63;68.99;99060.52;432482;1270;112393;-41
2022/03/06 17:13:49;;;;;;;64.80;32.40;;;;;;;-0.52;69.29;99068.61;432583;1270;99840;-40
2022/03/06 17:44:10;;;;;;;43.30;22.80;;;;;;;-0.90;68.82;99091.02;432736;1270;98007;-43
2022/03/06 17:54:18;;;;;;;45.50;23.20;;;;;;;-0.98;68.66;99089.00;432751;1270;112000;-43
2022/03/06 18:04:26;;;;;;;51.90;25.40;;;;;;;-1.08;68.83;99089.44;432697;1270;108595;-42
2022/03/06 18:14:34;;;;;;;58.90;24.50;;;;;;;-1.15;68.69;99100.52;432813;1270;98081;-40
2022/03/06 18:24:42;;;;;;;53.10;24.50;;;;;;;-1.22;68.71;99100.80;432543;1270;108943;-41
2022/03/06 18:34:49;;;;;;;32.90;19.10;;;;;;;-1.20;68.64;99096.95;432501;1269;99259;-41
2022/03/06 18:44:56;;;;;;;50.30;23.60;;;;;;;-1.07;68.89;99093.15;432602;1270;111933;-40
2022/03/06 18:55:03;;;;;;;46.30;23.70;;;;;;;-1.01;68.84;99091.72;432731;1270;109222;-41
2022/03/06 19:25:22;;;;;;;59.40;29.50;;;;;;;-1.26;68.23;99099.05;432649;1269;108777;-40
2022/03/06 19:35:29;;;;;;;58.30;29.80;;;;;;;-1.33;68.35;99101.14;432702;1270;99350;-41
2022/03/06 19:45:36;;;;;;;46.70;25.60;;;;;;;-1.39;67.76;99102.20;432742;1270;108816;-41
2022/03/06 19:55:44;;;;;;;55.20;27.30;;;;;;;-1.43;67.86;99104.41;432727;1269;99269;-43
2022/03/06 20:05:51;;;;;;;53.10;25.70;;;;;;;-1.47;67.88;99110.17;432547;1271;112285;-40
2022/03/06 20:15:59;;;;;;;47.20;25.50;;;;;;;-1.49;67.39;99111.99;432546;1270;109073;-41
2022/03/06 20:26:07;;;;;;;60.80;29.10;;;;;;;-1.52;67.15;99114.13;432661;1269;99251;-41
2022/03/06 20:36:14;;;;;;;72.20;36.20;;;;;;;-1.53;66.97;99106.60;432480;1269;108990;-41
2022/03/06 21:06:36;;;;;;;64.10;30.20;;;;;;;-1.56;66.97;99111.04;432660;1269;108785;-41
2022/03/06 21:16:46;;;;;;;87.40;42.70;;;;;;;-1.61;66.76;99112.36;432959;1270;99260;-42
2022/03/06 21:26:54;;;;;;;72.20;35.80;;;;;;;-1.67;66.65;99116.48;428782;1270;5399175;-44
2022/03/06 21:37:02;;;;;;;51.00;25.40;;;;;;;-1.70;66.02;99122.70;433487;1270;99244;-40
2022/03/06 22:07:19;;;;;;;44.80;27.40;;;;;;;-1.63;65.82;99135.67;433651;1269;98850;-41
2022/03/06 22:17:26;;;;;;;57.30;29.00;;;;;;;-1.74;65.60;99131.37;433473;1269;112411;-43
2022/03/06 22:27:34;;;;;;;58.00;29.70;;;;;;;-1.82;65.70;99132.98;432576;1269;108802;-40
2022/03/06 22:47:48;;;;;;;46.80;26.50;;;;;;;-1.93;65.85;99128.16;432453;1269;108719;-41
2022/03/06 22:57:56;;;;;;;51.80;27.20;;;;;;;-1.95;65.82;99125.99;433452;1270;98029;-41
2022/03/06 23:08:03;;;;;;;64.60;31.00;;;;;;;-1.99;65.96;99124.31;433654;1269;112369;-40
2022/03/06 23:18:11;;;;;;;49.90;27.20;;;;;;;-2.04;65.92;99114.89;433581;1271;108693;-42
2022/03/06 23:28:18;;;;;;;69.00;33.30;;;;;;;-2.07;66.06;99110.71;433701;1271;99263;-40
2022/03/06 23:38:26;;;;;;;56.60;28.60;;;;;;;-2.07;66.20;99114.09;433568;1270;108797;-40
2022/03/06 23:48:36;;;;;;;77.20;33.60;;;;;;;-2.04;66.19;99111.99;433551;1269;99270;-45
2022/03/06 23:58:44;;;;;;;54.90;29.20;;;;;;;-2.03;65.92;99110.32;433552;1270;112473;-41
